Time;durP1;ratioP1;P1;durP2;ratioP2;P2;SDS_P1;SDS_P2;PMS_P1;PMS_P2;Temp;Humidity;BMP_temperature;BMP_pressure;BME280_temperature;BME280_humidity;BME280_pressure;Samples;Min_cycle;Max_cycle;Signal;HPM_P1;HPM_P2
2021/11/06 00:00:29;;;;;;;11.20;9.00;;;;;;;7.59;79.38;101034.63;85420;1328;82013;-62
2021/11/06 00:03:00;;;;;;;12.60;10.00;;;;;;;7.60;79.56;101037.04;85455;1322;100175;-63
2021/11/06 00:05:13;;;;;;;11.40;9.30;;;;;;;7.61;79.61;101037.98;85441;1326;88914;-67
2021/11/06 00:07:23;;;;;;;12.10;9.40;;;;;;;7.58;79.50;101040.01;85440;1326;92804;-66
2021/11/06 00:09:35;;;;;;;12.00;10.00;;;;;;;7.55;79.71;101037.75;85529;1313;77906;-63
2021/11/06 00:11:48;;;;;;;12.40;9.70;;;;;;;7.53;79.66;101037.81;85483;1320;82791;-63
2021/11/06 00:13:57;;;;;;;11.70;9.10;;;;;;;7.49;79.54;101042.10;85516;1319;99941;-64
2021/11/06 00:16:07;;;;;;;11.80;8.90;;;;;;;7.47;79.67;101042.20;85489;1320;86488;-65
2021/11/06 00:18:17;;;;;;;11.60;9.30;;;;;;;7.47;79.78;101040.54;85479;1322;95915;-65
2021/11/06 00:20:26;;;;;;;11.20;8.50;;;;;;;7.48;79.80;101040.65;85521;1326;82093;-62
2021/11/06 00:22:38;;;;;;;12.90;9.50;;;;;;;7.49;79.78;101043.22;85553;1319;83156;-62
2021/11/06 00:24:47;;;;;;;11.70;9.30;;;;;;;7.50;79.94;101040.42;85481;1319;98785;-64
2021/11/06 00:26:56;;;;;;;12.20;9.10;;;;;;;7.51;79.77;101042.45;85499;1320;89575;-65
2021/11/06 00:29:05;;;;;;;11.80;9.00;;;;;;;7.51;79.91;101042.83;85487;1326;94988;-65
2021/11/06 00:31:15;;;;;;;13.10;8.80;;;;;;;7.53;79.79;101042.61;85536;1320;77997;-62
2021/11/06 00:33:25;;;;;;;13.00;9.90;;;;;;;7.54;79.84;101041.95;85524;1320;80584;-62
2021/11/06 00:35:37;;;;;;;11.60;9.20;;;;;;;7.55;79.81;101044.92;85524;1319;97318;-62
2021/11/06 00:37:47;;;;;;;12.80;9.50;;;;;;;7.54;79.79;101048.27;85488;1320;88400;-63
2021/11/06 00:39:57;;;;;;;15.80;9.60;;;;;;;7.53;79.85;101049.48;85475;1319;95458;-65
2021/11/06 00:42:10;;;;;;;12.80;9.60;;;;;;;7.50;79.85;101052.59;85500;1320;81136;-64
2021/11/06 00:44:20;;;;;;;12.90;8.80;;;;;;;7.52;79.80;101056.14;85477;1319;79338;-63
2021/11/06 00:46:30;;;;;;;12.00;9.50;;;;;;;7.53;79.93;101054.45;85473;1319;99471;-64
2021/11/06 00:48:40;;;;;;;12.30;8.70;;;;;;;7.54;79.90;101059.89;85518;1319;88605;-63
2021/11/06 00:50:49;;;;;;;11.80;9.70;;;;;;;7.53;80.08;101060.60;85509;1319;95395;-62
2021/11/06 00:53:02;;;;;;;10.10;8.60;;;;;;;7.53;80.00;101059.48;85455;1323;79842;-63
2021/11/06 00:55:17;;;;;;;13.50;9.50;;;;;;;7.53;80.00;101066.61;85503;1322;80817;-65
2021/11/06 00:57:29;;;;;;;15.90;9.60;;;;;;;7.53;80.08;101065.55;85468;1326;99401;-67
2021/11/06 00:59:42;;;;;;;14.90;10.50;;;;;;;7.57;79.95;101065.17;85476;1320;88356;-62
2021/11/06 01:01:55;;;;;;;14.90;10.40;;;;;;;7.56;79.90;101066.70;85530;1319;95826;-63
2021/11/06 01:04:05;;;;;;;13.60;10.00;;;;;;;7.56;80.02;101065.77;85494;1326;82096;-62
2021/11/06 01:06:15;;;;;;;13.40;10.10;;;;;;;7.56;80.00;101069.05;85526;1319;81875;-64
2021/11/06 01:08:27;;;;;;;13.10;10.00;;;;;;;7.56;80.10;101067.45;85496;1323;98666;-65
2021/11/06 01:10:39;;;;;;;13.00;9.90;;;;;;;7.57;80.14;101067.66;85485;1324;87242;-65
2021/11/06 01:12:51;;;;;;;12.60;10.50;;;;;;;7.58;80.06;101069.92;85493;1322;95956;-64
2021/11/06 01:15:01;;;;;;;13.80;9.80;;;;;;;7.60;80.02;101071.68;85434;1325;77888;-63
2021/11/06 01:17:11;;;;;;;13.50;11.00;;;;;;;7.60;79.98;101076.63;85479;1325;81480;-63
2021/11/06 01:19:23;;;;;;;16.30;11.30;;;;;;;7.61;80.17;101076.77;85478;1319;100326;-63
2021/11/06 01:21:36;;;;;;;13.30;11.50;;;;;;;7.63;80.08;101078.94;85501;1319;88549;-65
2021/11/06 01:23:49;;;;;;;13.70;11.00;;;;;;;7.64;80.18;101084.30;85508;1320;92390;-65
2021/11/06 01:25:59;;;;;;;16.40;11.40;;;;;;;7.69;80.27;101079.39;85471;1326;82421;-63
2021/11/06 01:28:11;;;;;;;13.00;11.20;;;;;;;7.69;80.20;101082.75;85495;1319;82323;-62
2021/11/06 01:30:24;;;;;;;14.50;11.70;;;;;;;7.71;80.12;101082.88;85514;1320;97122;-64
2021/11/06 01:32:38;;;;;;;16.60;12.10;;;;;;;7.75;80.30;101085.80;85378;1322;87805;-68
2021/11/06 01:34:50;;;;;;;15.80;11.80;;;;;;;7.76;80.28;101086.35;85497;1318;96114;-63
2021/11/06 01:37:03;;;;;;;15.70;12.90;;;;;;;7.81;80.17;101091.41;85511;1326;79956;-63
2021/11/06 01:39:18;;;;;;;15.10;12.40;;;;;;;7.85;80.22;101090.20;85503;1319;82244;-64
2021/11/06 01:41:28;;;;;;;16.60;13.00;;;;;;;7.87;80.14;101090.85;85465;1319;100352;-62
2021/11/06 01:43:42;;;;;;;15.80;12.80;;;;;;;7.85;80.19;101087.98;85550;1325;89216;-62
2021/11/06 01:46:00;;;;;;;16.60;12.70;;;;;;;7.83;80.09;101086.59;85469;1320;95477;-66
2021/11/06 01:48:12;;;;;;;17.20;13.70;;;;;;;7.79;80.10;101083.36;85493;1319;82312;-65
2021/11/06 01:50:27;;;;;;;16.60;13.90;;;;;;;7.80;80.16;101087.77;85522;1320;82848;-65
2021/11/06 01:52:40;;;;;;;16.80;14.20;;;;;;;7.80;80.09;101087.39;85550;1320;98588;-65
2021/11/06 01:54:49;;;;;;;17.80;14.00;;;;;;;7.82;80.12;101084.21;85532;1323;89263;-62
2021/11/06 01:57:03;;;;;;;18.40;14.00;;;;;;;7.83;80.10;101086.35;85485;1319;94566;-62
2021/11/06 01:59:21;;;;;;;16.90;14.20;;;;;;;7.84;80.08;101093.11;85508;1323;79299;-62
2021/11/06 02:01:30;;;;;;;18.40;14.40;;;;;;;7.85;80.24;101097.35;85462;1322;83198;-64
2021/11/06 02:03:40;;;;;;;18.90;14.30;;;;;;;7.84;80.22;101099.00;85468;1322;99207;-65
2021/11/06 02:05:49;;;;;;;16.20;14.00;;;;;;;7.87;80.20;101101.72;85445;1325;88239;-62
2021/11/06 02:07:59;;;;;;;18.60;15.20;;;;;;;7.92;80.25;101100.38;85492;1325;95820;-62
2021/11/06 02:10:13;;;;;;;21.10;15.30;;;;;;;7.94;80.16;101106.95;85461;1325;78922;-65
2021/11/06 02:12:26;;;;;;;20.50;15.20;;;;;;;7.95;80.14;101104.88;85447;1320;82430;-65
2021/11/06 02:14:36;;;;;;;17.00;13.90;;;;;;;7.97;80.20;101104.66;85510;1325;99872;-63
2021/11/06 02:16:45;;;;;;;18.90;16.10;;;;;;;7.93;80.22;101102.41;85463;1325;86976;-63
2021/11/06 02:18:54;;;;;;;17.70;14.70;;;;;;;7.95;80.12;101093.81;85471;1320;94903;-63
2021/11/06 02:21:07;;;;;;;16.90;15.10;;;;;;;7.94;80.10;101100.33;85479;1322;81865;-63
2021/11/06 02:23:16;;;;;;;18.80;15.50;;;;;;;7.94;80.20;101096.34;85202;1329;82193;-62
2021/11/06 02:25:29;;;;;;;20.00;15.40;;;;;;;7.95;80.21;101092.14;85422;1323;99692;-66
2021/11/06 02:27:43;;;;;;;19.00;15.40;;;;;;;7.91;80.12;101096.86;85429;1325;89283;-66
2021/11/06 02:29:55;;;;;;;19.60;16.80;;;;;;;7.89;80.13;101097.06;85370;1321;95018;-62
2021/11/06 02:32:06;;;;;;;18.40;16.40;;;;;;;7.91;80.19;101100.09;85404;1322;79811;-62
2021/11/06 02:34:15;;;;;;;19.70;16.80;;;;;;;7.89;80.25;101096.70;85469;1320;82224;-64
2021/11/06 02:36:27;;;;;;;19.20;15.80;;;;;;;7.87;80.27;101094.17;85375;1322;100258;-63
2021/11/06 02:38:40;;;;;;;19.40;16.30;;;;;;;7.84;80.18;101094.70;85477;1322;87924;-63
2021/11/06 02:40:52;;;;;;;21.10;17.00;;;;;;;7.85;80.29;101099.41;85394;1328;95455;-65
2021/11/06 02:43:02;;;;;;;21.90;17.50;;;;;;;7.89;80.27;101104.09;85464;1320;80177;-67
2021/11/06 02:45:13;;;;;;;22.70;16.30;;;;;;;7.92;80.44;101101.77;85400;1322;80594;-63
2021/11/06 02:47:23;;;;;;;20.90;16.60;;;;;;;7.96;80.36;101109.05;85428;1322;98065;-63
2021/11/06 02:49:33;;;;;;;18.50;16.10;;;;;;;7.97;80.40;101102.70;85416;1326;89643;-65
2021/11/06 02:51:42;;;;;;;17.40;15.60;;;;;;;7.99;80.48;101104.64;85452;1320;95523;-65
2021/11/06 02:53:54;;;;;;;22.70;17.70;;;;;;;8.00;80.42;101104.59;85429;1328;80424;-66
2021/11/06 02:56:03;;;;;;;18.70;16.50;;;;;;;8.02;80.51;101100.98;85471;1326;82422;-66
2021/11/06 02:58:14;;;;;;;19.50;17.20;;;;;;;8.04;80.50;101101.27;85388;1328;99609;-65
2021/11/06 03:00:26;;;;;;;20.20;17.50;;;;;;;8.06;80.54;101098.21;85423;1328;88126;-64
2021/11/06 03:02:40;;;;;;;19.30;16.40;;;;;;;8.05;80.46;101095.03;85485;1322;95612;-63
2021/11/06 03:04:53;;;;;;;21.80;19.00;;;;;;;8.05;80.35;101097.19;85389;1322;80458;-63
2021/11/06 03:07:02;;;;;;;21.30;17.80;;;;;;;8.05;80.52;101100.79;85528;1319;83363;-61
2021/11/06 03:09:13;;;;;;;20.10;18.00;;;;;;;8.06;80.48;101096.16;85517;1319;99827;-62
2021/11/06 03:11:26;;;;;;;21.20;18.60;;;;;;;8.10;80.54;101095.81;85511;1319;88527;-62
2021/11/06 03:13:36;;;;;;;20.20;17.00;;;;;;;8.10;80.54;101102.38;85531;1319;95025;-62
2021/11/06 03:15:45;;;;;;;19.30;17.30;;;;;;;8.10;80.50;101100.77;85522;1319;81488;-62
2021/11/06 03:17:58;;;;;;;19.00;17.00;;;;;;;8.13;80.53;101101.73;85533;1319;81169;-62
2021/11/06 03:20:09;;;;;;;21.30;18.20;;;;;;;8.15;80.78;101104.10;85498;1323;99408;-63
2021/11/06 03:22:18;;;;;;;20.40;17.70;;;;;;;8.16;80.49;101108.13;85537;1319;87697;-62
2021/11/06 03:24:27;;;;;;;21.20;18.80;;;;;;;8.15;80.49;101106.42;85539;1319;93223;-63
2021/11/06 03:26:36;;;;;;;19.40;17.40;;;;;;;8.16;80.41;101111.88;85511;1319;79657;-63
2021/11/06 03:28:46;;;;;;;19.70;17.60;;;;;;;8.15;80.53;101108.91;85542;1319;81654;-63
2021/11/06 03:30:58;;;;;;;19.10;17.10;;;;;;;8.15;80.47;101110.56;85507;1320;100439;-62
2021/11/06 03:33:08;;;;;;;19.30;16.60;;;;;;;8.12;80.49;101109.36;85509;1319;87976;-62
2021/11/06 03:35:17;;;;;;;16.00;14.30;;;;;;;8.11;80.48;101106.39;85523;1319;93696;-63
2021/11/06 03:37:26;;;;;;;19.60;15.80;;;;;;;8.09;80.55;101114.06;85491;1325;81527;-62
2021/11/06 03:39:36;;;;;;;19.60;17.10;;;;;;;8.11;80.48;101111.44;85537;1320;81989;-64
2021/11/06 03:41:46;;;;;;;18.60;16.70;;;;;;;8.12;80.41;101112.09;85548;1319;98987;-66
2021/11/06 03:43:58;;;;;;;19.30;17.10;;;;;;;8.15;80.48;101115.39;85486;1319;89254;-64
2021/11/06 03:46:08;;;;;;;19.70;17.60;;;;;;;8.14;80.31;101113.62;85544;1319;94748;-64
2021/11/06 03:48:21;;;;;;;19.00;17.00;;;;;;;8.12;80.35;101114.95;85542;1319;80028;-64
2021/11/06 03:50:30;;;;;;;19.90;16.80;;;;;;;8.09;80.34;101117.40;85517;1323;80431;-62
2021/11/06 03:52:40;;;;;;;19.50;16.80;;;;;;;8.07;80.30;101116.52;85469;1319;99827;-62
2021/11/06 03:54:51;;;;;;;18.40;16.40;;;;;;;8.05;80.31;101113.14;85527;1319;88615;-63
2021/11/06 03:57:04;;;;;;;17.20;15.50;;;;;;;8.03;80.26;101116.02;85478;1326;94977;-63
2021/11/06 03:59:20;;;;;;;17.40;15.50;;;;;;;8.03;80.32;101114.80;85521;1319;81392;-63
2021/11/06 04:01:31;;;;;;;18.00;16.10;;;;;;;8.06;80.38;101113.08;85528;1325;80506;-64
2021/11/06 04:03:43;;;;;;;16.90;15.20;;;;;;;8.07;80.38;101113.83;85524;1319;98986;-64
2021/11/06 04:05:52;;;;;;;17.90;15.70;;;;;;;8.08;80.29;101115.32;85480;1322;88686;-64
2021/11/06 04:08:02;;;;;;;16.90;15.20;;;;;;;8.07;80.31;101109.35;85482;1322;95155;-62
2021/11/06 04:10:14;;;;;;;18.70;16.40;;;;;;;8.03;80.28;101104.91;85496;1322;77692;-65
2021/11/06 04:12:27;;;;;;;16.40;14.50;;;;;;;8.04;80.24;101108.19;85513;1322;82799;-65
2021/11/06 04:14:37;;;;;;;18.00;14.80;;;;;;;8.02;80.06;101106.99;85386;1322;99641;-67
2021/11/06 04:16:48;;;;;;;16.60;14.20;;;;;;;8.01;80.09;101108.73;85474;1313;86012;-65
2021/11/06 04:19:00;;;;;;;15.70;14.10;;;;;;;8.00;80.24;101110.98;85422;1322;95197;-65
2021/11/06 04:21:10;;;;;;;15.40;13.70;;;;;;;8.00;80.16;101113.30;85438;1322;82976;-67
2021/11/06 04:23:19;;;;;;;15.40;13.50;;;;;;;8.01;80.03;101110.89;85480;1326;79816;-65
2021/11/06 04:25:28;;;;;;;15.00;13.20;;;;;;;8.02;80.16;101109.20;85467;1322;100234;-63
2021/11/06 04:27:37;;;;;;;17.50;14.70;;;;;;;8.01;80.17;101117.91;85462;1322;88931;-63
2021/11/06 04:29:49;;;;;;;15.20;13.60;;;;;;;7.99;80.05;101117.90;85468;1322;95006;-63
2021/11/06 04:31:58;;;;;;;14.90;13.40;;;;;;;7.99;79.99;101120.41;85436;1320;78837;-65
2021/11/06 04:34:11;;;;;;;15.10;13.50;;;;;;;7.97;79.89;101117.02;85502;1317;80457;-64
2021/11/06 04:36:20;;;;;;;14.80;13.20;;;;;;;7.96;79.85;101114.08;85451;1322;99585;-64
2021/11/06 04:38:29;;;;;;;14.50;12.50;;;;;;;7.92;79.81;101109.45;85486;1322;88934;-64
2021/11/06 04:40:39;;;;;;;13.90;12.40;;;;;;;7.86;79.64;101111.25;85443;1322;93750;-64
2021/11/06 04:42:49;;;;;;;13.70;12.20;;;;;;;7.80;79.61;101109.09;85441;1321;81790;-62
2021/11/06 04:44:58;;;;;;;13.30;11.80;;;;;;;7.76;79.69;101107.67;85410;1322;82837;-64
2021/11/06 04:47:08;;;;;;;13.60;12.20;;;;;;;7.73;79.82;101103.87;85500;1322;97883;-65
2021/11/06 04:49:20;;;;;;;14.10;12.70;;;;;;;7.70;79.82;101104.52;85481;1322;89110;-64
2021/11/06 04:51:30;;;;;;;14.40;12.70;;;;;;;7.68;79.85;101102.39;85479;1322;95523;-65
2021/11/06 04:53:39;;;;;;;14.60;13.10;;;;;;;7.65;79.88;101100.20;85460;1322;77625;-65
2021/11/06 04:55:48;;;;;;;14.20;12.60;;;;;;;7.64;79.93;101104.05;85420;1322;83191;-62
2021/11/06 04:58:00;;;;;;;14.30;12.90;;;;;;;7.62;79.76;101104.98;85443;1327;98756;-63
2021/11/06 05:00:17;;;;;;;12.90;11.60;;;;;;;7.59;79.82;101115.13;85440;1322;89020;-65
2021/11/06 05:02:29;;;;;;;14.00;12.50;;;;;;;7.54;79.94;101112.29;84972;1319;729631;-66
2021/11/06 05:04:41;;;;;;;15.50;12.80;;;;;;;7.51;79.88;101118.45;85475;1322;82109;-62
2021/11/06 05:06:50;;;;;;;13.60;12.10;;;;;;;7.51;80.10;101117.94;85582;1327;82313;-66
2021/11/06 05:08:59;;;;;;;13.90;12.50;;;;;;;7.53;80.02;101118.92;85603;1325;97949;-63
2021/11/06 05:11:11;;;;;;;13.60;11.30;;;;;;;7.55;80.08;101120.36;85595;1326;88187;-65
2021/11/06 05:13:21;;;;;;;12.90;11.60;;;;;;;7.57;80.15;101120.52;85587;1322;93647;-65
2021/11/06 05:15:30;;;;;;;14.00;12.60;;;;;;;7.62;80.12;101123.83;85564;1319;81736;-64
2021/11/06 05:17:39;;;;;;;13.40;11.10;;;;;;;7.66;80.01;101127.84;85470;1323;83218;-63
2021/11/06 05:19:52;;;;;;;14.60;11.80;;;;;;;7.70;80.07;101128.23;85579;1319;100257;-66
2021/11/06 05:22:05;;;;;;;12.70;11.20;;;;;;;7.70;79.88;101128.05;85591;1323;89343;-67
2021/11/06 05:24:20;;;;;;;13.80;12.40;;;;;;;7.71;79.85;101129.20;85556;1319;92563;-63
2021/11/06 05:26:29;;;;;;;12.20;11.00;;;;;;;7.70;79.85;101130.34;85575;1319;79691;-65
2021/11/06 05:28:42;;;;;;;13.00;11.70;;;;;;;7.72;79.79;101134.08;85615;1319;80155;-65
2021/11/06 05:30:55;;;;;;;12.30;11.10;;;;;;;7.75;79.73;101139.77;85569;1322;98658;-65
2021/11/06 05:33:07;;;;;;;12.00;10.80;;;;;;;7.76;79.81;101143.59;85573;1322;89514;-65
2021/11/06 05:35:17;;;;;;;12.00;10.70;;;;;;;7.78;79.77;101141.78;85609;1321;93162;-63
2021/11/06 05:37:30;;;;;;;12.60;11.10;;;;;;;7.82;79.76;101145.88;85584;1325;78966;-62
2021/11/06 05:39:39;;;;;;;12.00;10.80;;;;;;;7.84;79.69;101149.73;85594;1319;83545;-65
2021/11/06 05:41:49;;;;;;;13.20;11.90;;;;;;;7.87;79.72;101155.01;85593;1320;97752;-65
2021/11/06 05:43:58;;;;;;;12.40;11.10;;;;;;;7.88;79.50;101150.81;85564;1319;88827;-65
2021/11/06 05:46:11;;;;;;;12.80;11.00;;;;;;;7.87;79.47;101149.63;85565;1327;95395;-65
2021/11/06 05:48:20;;;;;;;12.90;11.60;;;;;;;7.89;79.50;101144.44;85581;1319;81563;-64
2021/11/06 05:50:32;;;;;;;14.40;12.00;;;;;;;7.89;79.45;101147.13;85574;1323;81507;-64
2021/11/06 05:52:45;;;;;;;13.00;11.30;;;;;;;7.90;79.41;101146.86;85578;1319;99519;-65
2021/11/06 05:54:58;;;;;;;13.80;12.40;;;;;;;7.92;79.38;101148.04;85585;1323;88921;-62
2021/11/06 05:57:08;;;;;;;13.00;11.50;;;;;;;7.92;79.41;101149.98;85594;1319;93993;-64
2021/11/06 05:59:20;;;;;;;13.00;11.40;;;;;;;7.94;79.33;101154.84;85610;1319;77874;-64
2021/11/06 06:01:30;;;;;;;13.30;11.90;;;;;;;7.94;79.32;101158.04;85567;1319;83379;-66
2021/11/06 06:03:40;;;;;;;12.90;11.60;;;;;;;7.93;79.28;101158.92;85565;1319;98480;-65
2021/11/06 06:05:50;;;;;;;12.80;11.50;;;;;;;7.92;79.37;101165.79;85571;1319;89467;-63
2021/11/06 06:07:59;;;;;;;12.70;11.10;;;;;;;7.95;79.22;101169.42;85578;1319;96044;-62
2021/11/06 06:10:12;;;;;;;12.40;11.10;;;;;;;7.98;79.31;101174.49;85574;1327;81188;-65
2021/11/06 06:12:24;;;;;;;13.30;11.90;;;;;;;8.01;79.31;101172.40;85593;1322;82546;-66
2021/11/06 06:14:33;;;;;;;12.70;11.50;;;;;;;8.02;79.27;101174.96;85608;1319;100763;-64
2021/11/06 06:16:42;;;;;;;13.00;11.60;;;;;;;8.04;79.17;101174.44;85598;1323;88459;-64
2021/11/06 06:18:54;;;;;;;12.10;10.80;;;;;;;8.04;79.22;101174.23;85562;1319;94008;-63
2021/11/06 06:21:04;;;;;;;12.40;11.20;;;;;;;8.06;79.16;101174.25;85563;1319;80902;-65
2021/11/06 06:23:17;;;;;;;12.20;11.00;;;;;;;8.06;79.25;101172.20;85582;1319;80782;-66
2021/11/06 06:25:30;;;;;;;12.60;11.30;;;;;;;8.11;79.14;101172.45;85569;1319;99881;-64
2021/11/06 06:27:41;;;;;;;13.60;12.20;;;;;;;8.18;79.16;101175.65;85564;1320;88694;-65
2021/11/06 06:29:54;;;;;;;137.20;72.80;;;;;;;8.22;79.15;101173.63;85626;1319;94777;-64
2021/11/06 06:32:03;;;;;;;73.20;49.70;;;;;;;8.32;79.09;101174.14;85502;1322;80188;-62
2021/11/06 06:34:15;;;;;;;20.80;17.00;;;;;;;8.48;79.15;101174.14;85580;1319;82898;-62
2021/11/06 06:36:27;;;;;;;14.20;12.70;;;;;;;8.66;79.07;101179.22;85560;1319;98358;-65
2021/11/06 06:38:37;;;;;;;13.20;11.80;;;;;;;8.88;79.01;101182.44;85579;1319;88473;-66
2021/11/06 06:40:49;;;;;;;13.00;11.70;;;;;;;9.07;78.73;101185.88;85586;1322;95365;-66
2021/11/06 06:42:58;;;;;;;14.50;11.60;;;;;;;9.29;78.54;101190.02;85580;1319;80945;-66
2021/11/06 06:45:11;;;;;;;11.90;10.70;;;;;;;9.53;78.47;101188.30;85612;1323;81783;-63
2021/11/06 06:47:21;;;;;;;13.40;11.80;;;;;;;9.61;77.92;101191.36;85565;1320;99124;-63
2021/11/06 06:49:30;;;;;;;14.10;10.60;;;;;;;9.53;77.83;101187.55;85606;1319;87225;-62
2021/11/06 06:51:40;;;;;;;14.10;11.80;;;;;;;9.37;77.51;101185.34;85571;1320;93097;-63
2021/11/06 06:53:49;;;;;;;12.90;11.10;;;;;;;9.18;77.43;101190.44;85508;1322;78530;-63
2021/11/06 06:55:58;;;;;;;13.30;11.60;;;;;;;9.03;77.54;101199.02;85604;1323;82638;-62
2021/11/06 06:58:08;;;;;;;11.90;10.40;;;;;;;8.95;77.54;101197.05;85591;1320;98142;-63
2021/11/06 07:00:22;;;;;;;12.70;11.30;;;;;;;8.93;77.63;101199.77;85558;1320;89195;-64
2021/11/06 07:02:32;;;;;;;12.50;10.70;;;;;;;8.96;77.66;101199.95;85563;1319;94263;-63
2021/11/06 07:04:42;;;;;;;13.00;10.30;;;;;;;8.99;77.72;101206.34;85566;1319;82109;-62
2021/11/06 07:06:53;;;;;;;13.30;10.60;;;;;;;9.08;77.89;101211.59;85600;1319;83113;-62
2021/11/06 07:09:03;;;;;;;12.50;10.00;;;;;;;9.21;77.76;101210.05;85585;1319;100165;-63
2021/11/06 07:11:12;;;;;;;13.70;10.50;;;;;;;9.19;77.51;101207.23;85559;1319;87076;-62
2021/11/06 07:13:24;;;;;;;14.40;11.00;;;;;;;9.16;77.52;101206.71;85549;1320;93014;-62
2021/11/06 07:15:33;;;;;;;13.30;10.70;;;;;;;9.17;77.56;101211.06;85545;1320;81509;-65
2021/11/06 07:17:43;;;;;;;11.60;10.30;;;;;;;9.15;77.37;101209.66;85591;1320;81335;-65
2021/11/06 07:19:56;;;;;;;12.80;10.20;;;;;;;9.10;77.39;101210.48;85571;1319;99850;-62
2021/11/06 07:22:08;;;;;;;12.10;10.00;;;;;;;9.10;77.52;101207.14;85567;1322;89962;-65
2021/11/06 07:24:18;;;;;;;12.70;10.30;;;;;;;9.12;77.48;101213.96;85565;1319;95354;-64
2021/11/06 07:26:31;;;;;;;12.00;10.00;;;;;;;9.10;77.27;101213.91;85591;1323;77525;-63
2021/11/06 07:28:41;;;;;;;13.80;10.70;;;;;;;9.11;77.31;101222.12;85578;1324;81394;-64
2021/11/06 07:30:53;;;;;;;10.60;9.20;;;;;;;9.16;77.26;101226.66;85584;1319;99979;-66
2021/11/06 07:33:03;;;;;;;13.10;9.30;;;;;;;9.23;77.41;101225.88;85537;1326;88095;-63
2021/11/06 07:35:12;;;;;;;10.40;9.00;;;;;;;9.33;77.34;101229.77;85427;1323;93013;-65
2021/11/06 07:37:22;;;;;;;10.80;9.60;;;;;;;9.37;77.21;101229.60;85506;1323;78533;-64
2021/11/06 07:39:31;;;;;;;10.10;8.80;;;;;;;9.43;77.22;101233.61;85552;1319;81367;-64
2021/11/06 07:41:43;;;;;;;10.50;8.90;;;;;;;9.49;77.16;101227.40;85580;1323;98473;-62
2021/11/06 07:43:56;;;;;;;11.20;8.70;;;;;;;9.57;76.98;101228.17;85571;1323;89695;-64
2021/11/06 07:46:06;;;;;;;10.20;8.80;;;;;;;9.63;76.91;101235.41;85559;1322;93899;-62
2021/11/06 07:48:15;;;;;;;10.60;8.10;;;;;;;9.68;76.72;101232.40;85546;1319;79284;-63
2021/11/06 07:50:26;;;;;;;12.30;9.20;;;;;;;9.76;76.67;101227.70;85609;1319;81323;-63
2021/11/06 07:52:35;;;;;;;10.50;8.70;;;;;;;9.91;76.53;101227.50;85598;1319;100106;-64
2021/11/06 07:54:48;;;;;;;11.40;7.90;;;;;;;10.05;76.44;101231.24;85602;1319;88806;-65
2021/11/06 07:57:00;;;;;;;11.10;8.50;;;;;;;10.15;76.29;101234.36;85564;1319;95313;-65
2021/11/06 07:59:10;;;;;;;11.60;8.10;;;;;;;10.19;75.97;101232.45;85584;1320;77783;-64
2021/11/06 08:01:23;;;;;;;11.90;8.20;;;;;;;10.22;75.82;101230.70;85601;1323;81926;-65
2021/11/06 08:03:35;;;;;;;10.40;8.20;;;;;;;11.09;76.04;101224.45;85577;1321;99507;-67
2021/11/06 08:05:44;;;;;;;9.50;7.80;;;;;;;11.83;75.22;101223.72;85555;1319;88760;-65
2021/11/06 08:07:58;;;;;;;10.40;8.00;;;;;;;12.10;74.54;101231.36;85572;1322;93962;-65
2021/11/06 08:10:09;;;;;;;8.60;7.30;;;;;;;12.24;74.01;101233.41;85469;1322;80480;-65
2021/11/06 08:12:23;;;;;;;10.50;7.80;;;;;;;12.16;73.49;101236.97;85592;1326;83716;-64
2021/11/06 08:14:33;;;;;;;7.60;6.80;;;;;;;12.06;73.41;101232.20;85570;1322;99956;-67
2021/11/06 08:16:44;;;;;;;9.30;7.40;;;;;;;11.99;72.77;101237.41;85562;1319;88366;-64
2021/11/06 08:18:54;;;;;;;9.60;7.60;;;;;;;11.73;72.55;101238.26;85580;1323;95393;-64
2021/11/06 08:21:04;;;;;;;8.90;6.70;;;;;;;11.44;72.48;101243.42;85587;1322;77533;-61
2021/11/06 08:23:14;;;;;;;8.60;6.80;;;;;;;11.20;72.46;101247.14;85540;1323;80746;-62
2021/11/06 08:25:24;;;;;;;10.20;6.80;;;;;;;10.94;72.53;101242.25;85562;1319;100487;-64
2021/11/06 08:27:37;;;;;;;9.90;7.40;;;;;;;10.71;72.61;101245.96;85568;1316;85914;-64
2021/11/06 08:29:47;;;;;;;10.70;8.20;;;;;;;10.52;72.59;101250.55;85558;1323;94249;-67
2021/11/06 08:31:58;;;;;;;9.60;7.30;;;;;;;10.35;72.75;101258.23;85554;1319;80620;-65
2021/11/06 08:34:08;;;;;;;12.40;7.70;;;;;;;10.21;72.88;101260.70;85580;1319;81855;-63
2021/11/06 08:36:21;;;;;;;10.20;7.70;;;;;;;10.12;73.04;101258.35;85589;1323;100359;-64
2021/11/06 08:38:34;;;;;;;9.20;7.20;;;;;;;9.98;73.13;101258.73;85594;1319;88057;-63
2021/11/06 08:40:46;;;;;;;8.10;7.10;;;;;;;9.94;73.39;101267.11;85561;1323;96155;-63
2021/11/06 08:42:57;;;;;;;8.40;6.90;;;;;;;9.83;73.32;101270.70;85576;1319;78397;-63
2021/11/06 08:45:07;;;;;;;9.40;7.10;;;;;;;9.77;73.48;101277.08;85593;1319;81167;-63
2021/11/06 08:47:20;;;;;;;10.00;7.40;;;;;;;9.73;73.55;101278.89;85588;1322;97718;-63
2021/11/06 08:49:30;;;;;;;13.90;7.70;;;;;;;9.68;73.67;101279.16;85605;1326;87915;-63
2021/11/06 08:51:42;;;;;;;11.20;7.80;;;;;;;9.70;73.82;101283.62;85590;1319;93437;-64
2021/11/06 08:53:53;;;;;;;12.60;8.00;;;;;;;9.72;73.81;101278.58;85570;1319;80413;-62
2021/11/06 08:56:05;;;;;;;10.80;8.50;;;;;;;9.65;73.89;101280.20;85602;1319;81796;-64
2021/11/06 08:58:17;;;;;;;12.10;8.00;;;;;;;9.60;73.90;101283.08;85591;1320;98099;-63
2021/11/06 09:00:34;;;;;;;11.50;9.20;;;;;;;9.50;74.05;101282.98;85553;1323;88101;-64
2021/11/06 09:02:46;;;;;;;11.00;8.50;;;;;;;9.47;74.03;101284.19;85453;1322;95455;-65
2021/11/06 09:04:55;;;;;;;10.20;8.50;;;;;;;9.46;74.19;101286.14;85486;1323;81207;-62
2021/11/06 09:07:05;;;;;;;12.40;7.90;;;;;;;9.38;74.37;101283.91;85483;1326;82930;-63
2021/11/06 09:09:19;;;;;;;13.50;8.80;;;;;;;9.35;74.51;101287.52;85456;1322;99675;-64
2021/11/06 09:11:31;;;;;;;10.70;8.50;;;;;;;9.37;74.51;101284.06;85448;1326;89207;-65
2021/11/06 09:13:43;;;;;;;14.30;9.30;;;;;;;9.36;74.66;101284.70;85464;1322;95502;-65
2021/11/06 09:15:56;;;;;;;12.30;9.40;;;;;;;9.31;74.75;101279.24;85456;1322;78617;-62
2021/11/06 09:18:05;;;;;;;12.20;8.40;;;;;;;9.32;74.75;101279.70;85451;1322;81516;-63
2021/11/06 09:20:21;;;;;;;11.40;8.60;;;;;;;9.34;74.82;101286.91;85474;1322;98551;-63
2021/11/06 09:22:30;;;;;;;14.70;9.10;;;;;;;9.28;74.91;101287.08;85475;1324;89141;-64
2021/11/06 09:24:40;;;;;;;12.30;9.00;;;;;;;9.27;74.93;101288.66;85499;1322;96325;-64
2021/11/06 09:26:50;;;;;;;11.70;8.50;;;;;;;9.26;74.93;101289.66;85479;1326;78626;-74
2021/11/06 09:29:03;;;;;;;9.60;8.60;;;;;;;9.26;75.10;101294.69;85434;1322;80079;-74
2021/11/06 09:31:19;;;;;;;12.60;9.10;;;;;;;9.26;75.15;101295.29;85450;1322;99262;-69
2021/11/06 09:33:31;;;;;;;11.20;8.30;;;;;;;9.26;75.26;101294.05;85508;1315;87989;-70
2021/11/06 09:35:43;;;;;;;11.80;9.00;;;;;;;9.23;75.31;101293.22;85447;1322;95510;-74
2021/11/06 09:37:53;;;;;;;10.40;9.10;;;;;;;9.25;75.29;101292.15;85425;1322;78603;-69
2021/11/06 09:40:09;;;;;;;11.20;8.70;;;;;;;9.28;75.46;101285.67;85498;1322;80731;-76
2021/11/06 09:42:22;;;;;;;16.90;10.30;;;;;;;9.32;75.43;101281.52;85274;1328;100258;-74
2021/11/06 09:44:36;;;;;;;10.70;9.50;;;;;;;9.33;75.37;101279.55;85498;1321;87733;-69
2021/11/06 09:46:49;;;;;;;11.80;8.90;;;;;;;9.34;75.36;101274.98;85457;1322;95069;-67
2021/11/06 09:48:59;;;;;;;14.70;9.40;;;;;;;9.34;75.44;101274.10;85448;1325;81075;-68
2021/11/06 09:51:12;;;;;;;11.10;9.10;;;;;;;9.39;75.51;101271.98;85489;1328;82412;-74
2021/11/06 09:53:24;;;;;;;12.40;9.60;;;;;;;9.47;75.47;101274.52;85450;1322;100232;-74
2021/11/06 09:55:38;;;;;;;12.10;9.60;;;;;;;9.54;75.38;101273.48;85509;1322;89531;-73
2021/11/06 09:57:51;;;;;;;11.90;9.70;;;;;;;9.59;75.46;101274.53;85478;1328;94168;-70
2021/11/06 10:00:04;;;;;;;13.00;10.40;;;;;;;9.66;75.50;101274.46;85446;1326;81986;-73
2021/11/06 10:02:15;;;;;;;14.60;9.30;;;;;;;9.68;75.23;101272.11;85437;1322;82650;-73
2021/11/06 10:04:26;;;;;;;12.80;9.60;;;;;;;9.68;75.30;101275.38;85462;1322;98929;-72